Pueblo of Sandia Village, NM

6:19 AM MST on February 26, 2017 (GMT -0700)
Rio Rancho | | Change Station

Elev 5174 ft 35.29 °N, 106.61 °W | Updated 4 minutes ago

Mostly Cloudy
Mostly Cloudy
31.7 °F
Feels Like 32 °F
N
0.0
Wind Variable Wind from NW
Gusts 3.0 mph

Today
High -- | Low -- °F
--% Chance of Precip.
Yesterday
High -- | Low -- °F
Precip. -- in
Pressure 29.92 in
Visibility 10.0 miles
Clouds Scattered Clouds 6500 ft
Windchill 32 °F
Dew Point 18 °F
Humidity 57%
Rainfall 0.00 in
Snow Depth Not available.
6:39 AM 5:59 PM
Waning Crescent, 0% visible
METAR KAEG 261248Z 26005KT 10SM SCT065 M02/M09 A2992
Pressure 29.92 in
Visibility 10.0 miles
Clouds Scattered Clouds 6500 ft
Windchill 32 °F
Dew Point 18 °F
Humidity 57%
Rainfall 0.00 in
Snow Depth Not available.
6:39 AM 5:59 PM
Waning Crescent, 0% visible
METAR KAEG 261248Z 26005KT 10SM SCT065 M02/M09 A2992

Get Your Daily Forecast Email!

Thanks for signing up!

Be on the lookout for a verification email in your inbox.

You'll start receiving the daily forecast at 8 AM.

×

10-Day Weather Forecast

Almanac

Astronomy

Feb. 26, 2017 Rise Set
Actual Time
Civil Twilight
Nautical Twilight
Astronomical Twilight
Moon
Length of Visible Light
Length of Day
Tomorrow will be .
, % of the Moon is Illuminated

Today's Extremes

State Highs State Lows

Community

WunderPhotos

Upload Photos

1,962,540 photos uploaded!

WunderBlog® & News

Nearby

Air Quality

  Air Quality AQ Index Pollutant
Not available.

Snow Depth

Station Depth Elevation

Earthquake Activity

City Distance Mag. Time & Date
Minimum magnitude displayed is 2.5.

Coastal Water Temperatures

Place Temperature

Stations

Nearby Weather Stations

Station Location Temp. Windchill Dew Point Humidity Wind Precip. Elev Updated Type
                   

Watches & Warnings

There are currently no watches in effect.